sensor_id;sensor_type;location;lat;lon;timestamp;P1;durP1;ratioP1;P2;durP2;ratioP2
60935;SDS011;46804;51.786;19.520;2022-07-15T00:00:10;4.03;;;1.80;;
60935;SDS011;46804;51.786;19.520;2022-07-15T00:04:30;2.45;;;1.50;;
60935;SDS011;46804;51.786;19.520;2022-07-15T00:08:31;5.10;;;1.65;;
60935;SDS011;46804;51.786;19.520;2022-07-15T00:12:32;4.82;;;1.67;;
60935;SDS011;46804;51.786;19.520;2022-07-15T00:16:32;5.72;;;1.88;;
60935;SDS011;46804;51.786;19.520;2022-07-15T00:20:33;6.28;;;1.92;;
60935;SDS011;46804;51.786;19.520;2022-07-15T00:24:34;5.05;;;2.00;;
60935;SDS011;46804;51.786;19.520;2022-07-15T00:28:34;4.68;;;1.95;;
60935;SDS011;46804;51.786;19.520;2022-07-15T00:32:36;3.20;;;1.52;;
60935;SDS011;46804;51.786;19.520;2022-07-15T00:36:36;2.67;;;1.58;;
60935;SDS011;46804;51.786;19.520;2022-07-15T00:40:40;5.32;;;1.70;;
60935;SDS011;46804;51.786;19.520;2022-07-15T00:44:44;2.70;;;1.50;;
60935;SDS011;46804;51.786;19.520;2022-07-15T00:48:45;6.18;;;1.75;;
60935;SDS011;46804;51.786;19.520;2022-07-15T00:52:48;6.55;;;1.83;;
60935;SDS011;46804;51.786;19.520;2022-07-15T00:56:54;3.45;;;1.70;;
60935;SDS011;46804;51.786;19.520;2022-07-15T01:00:55;6.03;;;1.87;;
60935;SDS011;46804;51.786;19.520;2022-07-15T01:04:58;4.57;;;1.60;;
60935;SDS011;46804;51.786;19.520;2022-07-15T01:08:59;5.35;;;2.13;;
60935;SDS011;46804;51.786;19.520;2022-07-15T01:13:00;4.78;;;1.75;;
60935;SDS011;46804;51.786;19.520;2022-07-15T01:17:07;3.73;;;1.60;;
60935;SDS011;46804;51.786;19.520;2022-07-15T01:21:09;4.90;;;1.65;;
60935;SDS011;46804;51.786;19.520;2022-07-15T01:25:09;3.35;;;1.77;;
60935;SDS011;46804;51.786;19.520;2022-07-15T01:29:10;6.00;;;1.80;;
60935;SDS011;46804;51.786;19.520;2022-07-15T01:33:11;4.43;;;1.80;;
60935;SDS011;46804;51.786;19.520;2022-07-15T01:37:12;5.32;;;1.88;;
60935;SDS011;46804;51.786;19.520;2022-07-15T01:41:12;3.92;;;1.75;;
60935;SDS011;46804;51.786;19.520;2022-07-15T01:45:13;3.70;;;1.70;;
60935;SDS011;46804;51.786;19.520;2022-07-15T01:49:13;5.28;;;1.92;;
60935;SDS011;46804;51.786;19.520;2022-07-15T01:53:26;3.30;;;1.95;;
60935;SDS011;46804;51.786;19.520;2022-07-15T01:57:28;4.63;;;1.95;;
60935;SDS011;46804;51.786;19.520;2022-07-15T02:01:29;4.85;;;2.00;;
60935;SDS011;46804;51.786;19.520;2022-07-15T02:05:30;3.30;;;1.90;;
60935;SDS011;46804;51.786;19.520;2022-07-15T02:09:30;3.85;;;2.10;;
60935;SDS011;46804;51.786;19.520;2022-07-15T02:13:31;6.07;;;1.70;;
60935;SDS011;46804;51.786;19.520;2022-07-15T02:17:31;5.43;;;1.88;;
60935;SDS011;46804;51.786;19.520;2022-07-15T02:21:32;5.95;;;2.53;;
60935;SDS011;46804;51.786;19.520;2022-07-15T02:25:32;3.78;;;1.90;;
60935;SDS011;46804;51.786;19.520;2022-07-15T02:29:34;5.22;;;2.38;;
60935;SDS011;46804;51.786;19.520;2022-07-15T02:33:35;5.32;;;2.13;;
60935;SDS011;46804;51.786;19.520;2022-07-15T02:37:35;3.08;;;2.05;;
60935;SDS011;46804;51.786;19.520;2022-07-15T02:41:36;6.47;;;2.85;;
60935;SDS011;46804;51.786;19.520;2022-07-15T02:45:36;6.57;;;3.15;;
60935;SDS011;46804;51.786;19.520;2022-07-15T02:49:38;7.47;;;2.67;;
60935;SDS011;46804;51.786;19.520;2022-07-15T02:53:38;4.55;;;2.50;;
60935;SDS011;46804;51.786;19.520;2022-07-15T02:57:39;8.32;;;3.13;;
60935;SDS011;46804;51.786;19.520;2022-07-15T03:01:40;5.72;;;2.95;;
60935;SDS011;46804;51.786;19.520;2022-07-15T03:05:41;5.60;;;2.72;;
60935;SDS011;46804;51.786;19.520;2022-07-15T03:09:41;9.50;;;2.65;;
60935;SDS011;46804;51.786;19.520;2022-07-15T03:13:42;6.05;;;2.58;;
60935;SDS011;46804;51.786;19.520;2022-07-15T03:17:42;7.53;;;2.60;;
60935;SDS011;46804;51.786;19.520;2022-07-15T03:21:42;7.57;;;2.47;;
60935;SDS011;46804;51.786;19.520;2022-07-15T03:25:43;6.78;;;2.30;;
60935;SDS011;46804;51.786;19.520;2022-07-15T03:29:44;5.63;;;2.53;;
60935;SDS011;46804;51.786;19.520;2022-07-15T03:33:44;5.40;;;1.95;;
60935;SDS011;46804;51.786;19.520;2022-07-15T03:37:45;6.03;;;2.63;;
60935;SDS011;46804;51.786;19.520;2022-07-15T03:41:45;4.68;;;2.28;;
60935;SDS011;46804;51.786;19.520;2022-07-15T03:45:49;5.38;;;2.10;;
60935;SDS011;46804;51.786;19.520;2022-07-15T03:49:49;7.32;;;2.75;;
60935;SDS011;46804;51.786;19.520;2022-07-15T03:53:50;4.85;;;2.40;;
60935;SDS011;46804;51.786;19.520;2022-07-15T03:57:53;5.63;;;2.40;;
60935;SDS011;46804;51.786;19.520;2022-07-15T04:01:55;3.70;;;2.00;;
60935;SDS011;46804;51.786;19.520;2022-07-15T04:05:56;3.40;;;1.92;;
60935;SDS011;46804;51.786;19.520;2022-07-15T04:09:56;4.05;;;2.10;;
60935;SDS011;46804;51.786;19.520;2022-07-15T04:13:57;6.40;;;2.33;;
60935;SDS011;46804;51.786;19.520;2022-07-15T04:17:57;4.93;;;2.45;;
60935;SDS011;46804;51.786;19.520;2022-07-15T04:21:58;4.13;;;2.00;;
60935;SDS011;46804;51.786;19.520;2022-07-15T04:25:59;6.40;;;2.47;;
60935;SDS011;46804;51.786;19.520;2022-07-15T04:29:59;7.85;;;3.00;;
60935;SDS011;46804;51.786;19.520;2022-07-15T04:34:00;11.63;;;3.58;;
60935;SDS011;46804;51.786;19.520;2022-07-15T04:38:00;10.50;;;3.30;;
60935;SDS011;46804;51.786;19.520;2022-07-15T04:42:01;10.23;;;3.00;;
60935;SDS011;46804;51.786;19.520;2022-07-15T04:46:02;4.78;;;2.33;;
60935;SDS011;46804;51.786;19.520;2022-07-15T04:50:03;5.65;;;2.08;;
60935;SDS011;46804;51.786;19.520;2022-07-15T04:54:22;9.30;;;1.90;;
60935;SDS011;46804;51.786;19.520;2022-07-15T04:58:23;3.40;;;1.60;;
60935;SDS011;46804;51.786;19.520;2022-07-15T05:02:23;3.00;;;1.85;;
60935;SDS011;46804;51.786;19.520;2022-07-15T05:06:24;5.45;;;1.67;;
60935;SDS011;46804;51.786;19.520;2022-07-15T05:10:25;2.50;;;1.50;;
60935;SDS011;46804;51.786;19.520;2022-07-15T05:14:25;3.78;;;1.92;;
60935;SDS011;46804;51.786;19.520;2022-07-15T05:18:26;3.92;;;1.60;;
60935;SDS011;46804;51.786;19.520;2022-07-15T05:22:26;5.18;;;1.83;;
60935;SDS011;46804;51.786;19.520;2022-07-15T05:26:27;2.67;;;1.67;;
60935;SDS011;46804;51.786;19.520;2022-07-15T05:30:28;4.95;;;1.83;;
60935;SDS011;46804;51.786;19.520;2022-07-15T05:34:29;3.97;;;1.85;;
60935;SDS011;46804;51.786;19.520;2022-07-15T05:38:29;4.65;;;2.00;;
60935;SDS011;46804;51.786;19.520;2022-07-15T05:42:30;5.05;;;2.10;;
60935;SDS011;46804;51.786;19.520;2022-07-15T05:46:30;5.28;;;2.03;;
60935;SDS011;46804;51.786;19.520;2022-07-15T05:50:31;6.18;;;2.20;;
60935;SDS011;46804;51.786;19.520;2022-07-15T05:54:31;4.57;;;1.80;;
60935;SDS011;46804;51.786;19.520;2022-07-15T05:58:32;4.00;;;1.67;;
60935;SDS011;46804;51.786;19.520;2022-07-15T06:02:32;3.08;;;1.77;;
60935;SDS011;46804;51.786;19.520;2022-07-15T06:06:33;1.52;;;1.17;;
60935;SDS011;46804;51.786;19.520;2022-07-15T06:10:34;5.72;;;1.80;;
60935;SDS011;46804;51.786;19.520;2022-07-15T06:14:35;5.28;;;1.60;;
60935;SDS011;46804;51.786;19.520;2022-07-15T06:18:35;4.03;;;1.65;;
60935;SDS011;46804;51.786;19.520;2022-07-15T06:22:38;2.60;;;1.30;;
60935;SDS011;46804;51.786;19.520;2022-07-15T06:26:38;3.95;;;1.60;;
60935;SDS011;46804;51.786;19.520;2022-07-15T06:30:39;5.38;;;1.65;;
60935;SDS011;46804;51.786;19.520;2022-07-15T06:34:40;3.42;;;1.63;;
60935;SDS011;46804;51.786;19.520;2022-07-15T06:38:40;7.35;;;1.80;;
60935;SDS011;46804;51.786;19.520;2022-07-15T06:42:41;10.50;;;3.88;;
60935;SDS011;46804;51.786;19.520;2022-07-15T06:46:42;11.52;;;5.93;;
60935;SDS011;46804;51.786;19.520;2022-07-15T06:50:43;10.52;;;3.35;;
60935;SDS011;46804;51.786;19.520;2022-07-15T06:54:43;6.63;;;3.30;;
60935;SDS011;46804;51.786;19.520;2022-07-15T06:58:44;6.68;;;2.00;;
60935;SDS011;46804;51.786;19.520;2022-07-15T07:02:44;3.10;;;1.58;;
60935;SDS011;46804;51.786;19.520;2022-07-15T07:06:46;6.05;;;1.80;;
60935;SDS011;46804;51.786;19.520;2022-07-15T07:10:47;3.50;;;1.38;;
60935;SDS011;46804;51.786;19.520;2022-07-15T07:14:47;3.65;;;1.50;;
60935;SDS011;46804;51.786;19.520;2022-07-15T07:18:48;5.22;;;1.20;;
60935;SDS011;46804;51.786;19.520;2022-07-15T07:22:50;3.38;;;1.35;;
60935;SDS011;46804;51.786;19.520;2022-07-15T07:26:51;3.28;;;1.40;;
60935;SDS011;46804;51.786;19.520;2022-07-15T07:30:52;3.00;;;1.35;;
60935;SDS011;46804;51.786;19.520;2022-07-15T07:34:54;5.78;;;1.50;;
60935;SDS011;46804;51.786;19.520;2022-07-15T07:38:55;7.85;;;1.50;;
60935;SDS011;46804;51.786;19.520;2022-07-15T07:42:55;3.00;;;1.33;;
60935;SDS011;46804;51.786;19.520;2022-07-15T07:46:56;2.45;;;1.10;;
60935;SDS011;46804;51.786;19.520;2022-07-15T07:50:57;3.80;;;1.60;;
60935;SDS011;46804;51.786;19.520;2022-07-15T07:54:58;4.85;;;1.73;;
60935;SDS011;46804;51.786;19.520;2022-07-15T07:58:59;10.65;;;1.30;;
60935;SDS011;46804;51.786;19.520;2022-07-15T08:02:59;4.97;;;1.42;;
60935;SDS011;46804;51.786;19.520;2022-07-15T08:07:01;2.88;;;1.10;;
60935;SDS011;46804;51.786;19.520;2022-07-15T08:11:01;2.10;;;1.00;;
60935;SDS011;46804;51.786;19.520;2022-07-15T08:15:02;6.97;;;1.50;;
60935;SDS011;46804;51.786;19.520;2022-07-15T08:19:05;4.38;;;1.27;;
60935;SDS011;46804;51.786;19.520;2022-07-15T08:23:05;3.08;;;1.35;;
60935;SDS011;46804;51.786;19.520;2022-07-15T08:27:07;7.97;;;1.30;;
60935;SDS011;46804;51.786;19.520;2022-07-15T08:31:08;6.03;;;1.40;;
60935;SDS011;46804;51.786;19.520;2022-07-15T08:35:09;3.10;;;1.20;;
60935;SDS011;46804;51.786;19.520;2022-07-15T08:39:09;2.75;;;0.95;;
60935;SDS011;46804;51.786;19.520;2022-07-15T08:43:12;2.57;;;1.03;;
60935;SDS011;46804;51.786;19.520;2022-07-15T08:47:13;3.80;;;1.10;;
60935;SDS011;46804;51.786;19.520;2022-07-15T08:51:15;4.53;;;1.53;;
60935;SDS011;46804;51.786;19.520;2022-07-15T08:55:17;4.47;;;1.15;;
60935;SDS011;46804;51.786;19.520;2022-07-15T08:59:18;5.82;;;1.50;;
60935;SDS011;46804;51.786;19.520;2022-07-15T09:03:18;1.42;;;0.80;;
60935;SDS011;46804;51.786;19.520;2022-07-15T09:07:19;3.17;;;1.20;;
60935;SDS011;46804;51.786;19.520;2022-07-15T09:11:26;10.73;;;1.55;;
60935;SDS011;46804;51.786;19.520;2022-07-15T09:15:28;3.40;;;1.40;;
60935;SDS011;46804;51.786;19.520;2022-07-15T09:19:32;1.98;;;0.95;;
60935;SDS011;46804;51.786;19.520;2022-07-15T09:24:14;5.07;;;1.63;;
60935;SDS011;46804;51.786;19.520;2022-07-15T09:28:17;3.10;;;1.08;;
60935;SDS011;46804;51.786;19.520;2022-07-15T09:32:18;4.28;;;1.25;;
60935;SDS011;46804;51.786;19.520;2022-07-15T09:36:37;2.92;;;1.13;;
60935;SDS011;46804;51.786;19.520;2022-07-15T09:40:47;3.72;;;1.42;;
60935;SDS011;46804;51.786;19.520;2022-07-15T09:44:48;3.78;;;1.15;;
60935;SDS011;46804;51.786;19.520;2022-07-15T09:48:51;2.05;;;1.13;;
60935;SDS011;46804;51.786;19.520;2022-07-15T09:52:52;5.10;;;1.30;;
60935;SDS011;46804;51.786;19.520;2022-07-15T09:56:53;1.67;;;0.98;;
60935;SDS011;46804;51.786;19.520;2022-07-15T10:00:53;3.78;;;0.90;;
60935;SDS011;46804;51.786;19.520;2022-07-15T10:04:54;1.40;;;0.90;;
60935;SDS011;46804;51.786;19.520;2022-07-15T10:08:55;4.78;;;1.00;;
60935;SDS011;46804;51.786;19.520;2022-07-15T10:13:05;2.55;;;1.13;;
60935;SDS011;46804;51.786;19.520;2022-07-15T10:17:29;2.95;;;1.00;;
60935;SDS011;46804;51.786;19.520;2022-07-15T10:26:18;1.90;;;1.02;;
60935;SDS011;46804;51.786;19.520;2022-07-15T10:30:25;5.17;;;1.37;;
60935;SDS011;46804;51.786;19.520;2022-07-15T10:34:33;1.80;;;1.30;;
60935;SDS011;46804;51.786;19.520;2022-07-15T10:38:36;4.47;;;1.23;;
60935;SDS011;46804;51.786;19.520;2022-07-15T10:42:57;5.20;;;0.93;;
60935;SDS011;46804;51.786;19.520;2022-07-15T10:55:36;4.20;;;0.95;;
60935;SDS011;46804;51.786;19.520;2022-07-15T10:59:38;3.03;;;1.17;;
60935;SDS011;46804;51.786;19.520;2022-07-15T11:04:08;6.43;;;1.40;;
60935;SDS011;46804;51.786;19.520;2022-07-15T11:16:37;6.78;;;1.15;;
60935;SDS011;46804;51.786;19.520;2022-07-15T11:20:37;2.72;;;0.90;;
60935;SDS011;46804;51.786;19.520;2022-07-15T11:24:38;2.38;;;1.00;;
60935;SDS011;46804;51.786;19.520;2022-07-15T11:28:52;3.00;;;1.08;;
60935;SDS011;46804;51.786;19.520;2022-07-15T11:32:55;5.55;;;1.13;;
60935;SDS011;46804;51.786;19.520;2022-07-15T11:36:58;1.27;;;0.80;;
60935;SDS011;46804;51.786;19.520;2022-07-15T11:41:02;3.22;;;1.13;;
60935;SDS011;46804;51.786;19.520;2022-07-15T11:49:37;5.72;;;1.27;;
60935;SDS011;46804;51.786;19.520;2022-07-15T11:53:42;3.58;;;1.00;;
60935;SDS011;46804;51.786;19.520;2022-07-15T11:57:46;1.08;;;0.80;;
60935;SDS011;46804;51.786;19.520;2022-07-15T12:06:05;1.48;;;0.70;;
60935;SDS011;46804;51.786;19.520;2022-07-15T12:10:14;4.05;;;1.17;;
60935;SDS011;46804;51.786;19.520;2022-07-15T12:14:19;1.52;;;0.85;;
60935;SDS011;46804;51.786;19.520;2022-07-15T12:18:21;2.28;;;1.10;;
60935;SDS011;46804;51.786;19.520;2022-07-15T12:22:22;4.40;;;1.33;;
60935;SDS011;46804;51.786;19.520;2022-07-15T12:26:23;3.30;;;1.30;;
60935;SDS011;46804;51.786;19.520;2022-07-15T12:30:34;2.13;;;0.98;;
60935;SDS011;46804;51.786;19.520;2022-07-15T12:34:52;4.95;;;1.23;;
60935;SDS011;46804;51.786;19.520;2022-07-15T12:39:11;3.67;;;1.10;;
60935;SDS011;46804;51.786;19.520;2022-07-15T12:43:14;3.17;;;1.00;;
60935;SDS011;46804;51.786;19.520;2022-07-15T12:47:15;4.82;;;0.93;;
60935;SDS011;46804;51.786;19.520;2022-07-15T12:51:17;2.13;;;0.98;;
60935;SDS011;46804;51.786;19.520;2022-07-15T12:55:24;3.42;;;0.98;;
60935;SDS011;46804;51.786;19.520;2022-07-15T12:59:30;1.63;;;1.00;;
60935;SDS011;46804;51.786;19.520;2022-07-15T13:03:30;2.42;;;1.25;;
60935;SDS011;46804;51.786;19.520;2022-07-15T13:07:31;2.50;;;0.80;;
60935;SDS011;46804;51.786;19.520;2022-07-15T13:11:31;2.72;;;0.90;;
60935;SDS011;46804;51.786;19.520;2022-07-15T13:15:32;3.58;;;1.25;;
60935;SDS011;46804;51.786;19.520;2022-07-15T13:19:33;3.42;;;1.17;;
60935;SDS011;46804;51.786;19.520;2022-07-15T13:23:34;3.60;;;1.15;;
60935;SDS011;46804;51.786;19.520;2022-07-15T13:27:35;7.72;;;1.20;;
60935;SDS011;46804;51.786;19.520;2022-07-15T13:31:35;2.97;;;0.98;;
60935;SDS011;46804;51.786;19.520;2022-07-15T13:35:36;4.18;;;1.17;;
60935;SDS011;46804;51.786;19.520;2022-07-15T13:39:36;3.60;;;1.15;;
60935;SDS011;46804;51.786;19.520;2022-07-15T13:43:37;3.90;;;0.93;;
60935;SDS011;46804;51.786;19.520;2022-07-15T13:47:38;2.42;;;0.98;;
60935;SDS011;46804;51.786;19.520;2022-07-15T13:51:39;3.72;;;1.13;;
60935;SDS011;46804;51.786;19.520;2022-07-15T13:55:43;4.25;;;1.25;;
60935;SDS011;46804;51.786;19.520;2022-07-15T13:59:43;3.67;;;1.15;;
60935;SDS011;46804;51.786;19.520;2022-07-15T14:03:44;9.70;;;2.10;;
60935;SDS011;46804;51.786;19.520;2022-07-15T14:07:44;5.18;;;1.20;;
60935;SDS011;46804;51.786;19.520;2022-07-15T14:11:45;1.65;;;0.65;;
60935;SDS011;46804;51.786;19.520;2022-07-15T14:15:45;10.50;;;1.60;;
60935;SDS011;46804;51.786;19.520;2022-07-15T14:19:46;4.38;;;1.20;;
60935;SDS011;46804;51.786;19.520;2022-07-15T14:23:47;4.70;;;1.38;;
60935;SDS011;46804;51.786;19.520;2022-07-15T14:27:48;2.22;;;0.90;;
60935;SDS011;46804;51.786;19.520;2022-07-15T14:31:49;4.93;;;1.38;;
60935;SDS011;46804;51.786;19.520;2022-07-15T14:35:49;4.47;;;1.08;;
60935;SDS011;46804;51.786;19.520;2022-07-15T14:39:50;3.45;;;1.25;;
60935;SDS011;46804;51.786;19.520;2022-07-15T14:43:51;3.60;;;1.20;;
60935;SDS011;46804;51.786;19.520;2022-07-15T14:47:51;4.57;;;1.38;;
60935;SDS011;46804;51.786;19.520;2022-07-15T14:51:52;2.35;;;1.17;;
60935;SDS011;46804;51.786;19.520;2022-07-15T14:55:52;3.15;;;1.40;;
60935;SDS011;46804;51.786;19.520;2022-07-15T14:59:53;2.15;;;1.25;;
60935;SDS011;46804;51.786;19.520;2022-07-15T15:03:53;3.65;;;1.10;;
60935;SDS011;46804;51.786;19.520;2022-07-15T15:07:54;2.72;;;1.15;;
60935;SDS011;46804;51.786;19.520;2022-07-15T15:11:54;2.13;;;1.00;;
60935;SDS011;46804;51.786;19.520;2022-07-15T15:15:55;0.98;;;0.80;;
60935;SDS011;46804;51.786;19.520;2022-07-15T15:19:55;4.18;;;1.08;;
60935;SDS011;46804;51.786;19.520;2022-07-15T15:23:56;2.22;;;1.13;;
60935;SDS011;46804;51.786;19.520;2022-07-15T15:27:56;3.22;;;1.30;;
60935;SDS011;46804;51.786;19.520;2022-07-15T15:31:57;2.25;;;1.00;;
60935;SDS011;46804;51.786;19.520;2022-07-15T15:35:57;3.45;;;1.17;;
60935;SDS011;46804;51.786;19.520;2022-07-15T15:39:58;3.03;;;1.40;;
60935;SDS011;46804;51.786;19.520;2022-07-15T15:43:59;7.18;;;1.40;;
60935;SDS011;46804;51.786;19.520;2022-07-15T15:47:59;2.53;;;1.08;;
60935;SDS011;46804;51.786;19.520;2022-07-15T15:52:03;2.72;;;1.08;;
60935;SDS011;46804;51.786;19.520;2022-07-15T15:56:04;4.63;;;1.13;;
60935;SDS011;46804;51.786;19.520;2022-07-15T16:00:06;2.60;;;1.30;;
60935;SDS011;46804;51.786;19.520;2022-07-15T16:04:08;2.38;;;1.10;;
60935;SDS011;46804;51.786;19.520;2022-07-15T16:08:08;5.07;;;1.27;;
60935;SDS011;46804;51.786;19.520;2022-07-15T16:12:09;6.35;;;1.10;;
60935;SDS011;46804;51.786;19.520;2022-07-15T16:16:10;4.72;;;1.13;;
60935;SDS011;46804;51.786;19.520;2022-07-15T16:20:11;3.60;;;1.20;;
60935;SDS011;46804;51.786;19.520;2022-07-15T16:24:11;2.47;;;0.95;;
60935;SDS011;46804;51.786;19.520;2022-07-15T16:28:13;3.88;;;1.20;;
60935;SDS011;46804;51.786;19.520;2022-07-15T16:32:13;2.72;;;1.15;;
60935;SDS011;46804;51.786;19.520;2022-07-15T16:36:14;3.95;;;1.05;;
60935;SDS011;46804;51.786;19.520;2022-07-15T16:40:15;4.15;;;1.23;;
60935;SDS011;46804;51.786;19.520;2022-07-15T16:44:16;1.90;;;1.10;;
60935;SDS011;46804;51.786;19.520;2022-07-15T16:48:16;1.80;;;0.90;;
60935;SDS011;46804;51.786;19.520;2022-07-15T16:52:17;3.80;;;1.33;;
60935;SDS011;46804;51.786;19.520;2022-07-15T16:56:17;4.07;;;1.40;;
60935;SDS011;46804;51.786;19.520;2022-07-15T17:00:18;3.80;;;1.10;;
60935;SDS011;46804;51.786;19.520;2022-07-15T17:04:18;2.63;;;1.20;;
60935;SDS011;46804;51.786;19.520;2022-07-15T17:08:19;2.80;;;1.08;;
60935;SDS011;46804;51.786;19.520;2022-07-15T17:12:20;3.97;;;0.98;;
60935;SDS011;46804;51.786;19.520;2022-07-15T17:16:21;3.90;;;1.20;;
60935;SDS011;46804;51.786;19.520;2022-07-15T17:20:21;5.22;;;1.50;;
60935;SDS011;46804;51.786;19.520;2022-07-15T17:24:22;2.30;;;1.10;;
60935;SDS011;46804;51.786;19.520;2022-07-15T17:28:22;2.05;;;1.23;;
60935;SDS011;46804;51.786;19.520;2022-07-15T17:32:23;2.75;;;1.02;;
60935;SDS011;46804;51.786;19.520;2022-07-15T17:36:23;5.20;;;1.50;;
60935;SDS011;46804;51.786;19.520;2022-07-15T17:40:24;2.92;;;1.10;;
60935;SDS011;46804;51.786;19.520;2022-07-15T17:44:24;3.30;;;1.50;;
60935;SDS011;46804;51.786;19.520;2022-07-15T17:48:25;3.70;;;1.30;;
60935;SDS011;46804;51.786;19.520;2022-07-15T17:52:25;2.42;;;1.33;;
60935;SDS011;46804;51.786;19.520;2022-07-15T17:56:26;3.95;;;1.50;;
60935;SDS011;46804;51.786;19.520;2022-07-15T18:00:27;3.83;;;1.15;;
60935;SDS011;46804;51.786;19.520;2022-07-15T18:04:28;6.03;;;1.23;;
60935;SDS011;46804;51.786;19.520;2022-07-15T18:08:28;4.35;;;1.45;;
60935;SDS011;46804;51.786;19.520;2022-07-15T18:12:29;3.15;;;1.33;;
60935;SDS011;46804;51.786;19.520;2022-07-15T18:16:30;5.82;;;1.90;;
60935;SDS011;46804;51.786;19.520;2022-07-15T18:20:31;3.90;;;1.30;;
60935;SDS011;46804;51.786;19.520;2022-07-15T18:24:31;1.83;;;1.17;;
60935;SDS011;46804;51.786;19.520;2022-07-15T18:28:32;4.65;;;1.50;;
60935;SDS011;46804;51.786;19.520;2022-07-15T18:32:32;2.60;;;1.35;;
60935;SDS011;46804;51.786;19.520;2022-07-15T18:36:33;3.95;;;1.50;;
60935;SDS011;46804;51.786;19.520;2022-07-15T18:40:33;3.92;;;1.20;;
60935;SDS011;46804;51.786;19.520;2022-07-15T18:44:34;2.90;;;1.38;;
60935;SDS011;46804;51.786;19.520;2022-07-15T18:48:35;7.80;;;1.90;;
60935;SDS011;46804;51.786;19.520;2022-07-15T18:52:36;5.38;;;1.30;;
60935;SDS011;46804;51.786;19.520;2022-07-15T18:56:37;4.90;;;1.55;;
60935;SDS011;46804;51.786;19.520;2022-07-15T19:00:38;1.83;;;1.30;;
60935;SDS011;46804;51.786;19.520;2022-07-15T19:04:38;6.18;;;1.70;;
60935;SDS011;46804;51.786;19.520;2022-07-15T19:08:39;7.97;;;1.60;;
60935;SDS011;46804;51.786;19.520;2022-07-15T19:12:40;3.10;;;1.38;;
60935;SDS011;46804;51.786;19.520;2022-07-15T19:16:41;3.58;;;1.60;;
60935;SDS011;46804;51.786;19.520;2022-07-15T19:20:41;4.82;;;1.80;;
60935;SDS011;46804;51.786;19.520;2022-07-15T19:24:42;4.57;;;1.45;;
60935;SDS011;46804;51.786;19.520;2022-07-15T19:28:43;8.25;;;1.73;;
60935;SDS011;46804;51.786;19.520;2022-07-15T19:32:43;6.03;;;2.00;;
60935;SDS011;46804;51.786;19.520;2022-07-15T19:36:44;3.78;;;1.58;;
60935;SDS011;46804;51.786;19.520;2022-07-15T19:40:44;3.13;;;1.65;;
60935;SDS011;46804;51.786;19.520;2022-07-15T19:44:45;2.97;;;1.63;;
60935;SDS011;46804;51.786;19.520;2022-07-15T19:48:46;4.60;;;1.65;;
60935;SDS011;46804;51.786;19.520;2022-07-15T19:52:46;4.25;;;1.63;;
60935;SDS011;46804;51.786;19.520;2022-07-15T19:56:47;5.60;;;1.75;;
60935;SDS011;46804;51.786;19.520;2022-07-15T20:00:49;2.93;;;1.70;;
60935;SDS011;46804;51.786;19.520;2022-07-15T20:04:50;4.45;;;1.50;;
60935;SDS011;46804;51.786;19.520;2022-07-15T20:08:50;5.95;;;1.80;;
60935;SDS011;46804;51.786;19.520;2022-07-15T20:12:51;4.32;;;1.67;;
60935;SDS011;46804;51.786;19.520;2022-07-15T20:16:52;4.70;;;1.65;;
60935;SDS011;46804;51.786;19.520;2022-07-15T20:20:56;2.75;;;1.50;;
60935;SDS011;46804;51.786;19.520;2022-07-15T20:24:57;3.15;;;1.60;;
60935;SDS011;46804;51.786;19.520;2022-07-15T20:28:58;3.08;;;1.55;;
60935;SDS011;46804;51.786;19.520;2022-07-15T20:32:58;4.55;;;1.80;;
60935;SDS011;46804;51.786;19.520;2022-07-15T20:36:59;7.10;;;1.80;;
60935;SDS011;46804;51.786;19.520;2022-07-15T20:41:00;3.17;;;1.60;;
60935;SDS011;46804;51.786;19.520;2022-07-15T20:45:01;6.28;;;1.83;;
60935;SDS011;46804;51.786;19.520;2022-07-15T20:49:02;3.78;;;1.52;;
60935;SDS011;46804;51.786;19.520;2022-07-15T20:53:04;2.95;;;1.58;;
60935;SDS011;46804;51.786;19.520;2022-07-15T20:57:05;7.20;;;1.90;;
60935;SDS011;46804;51.786;19.520;2022-07-15T21:01:06;5.75;;;1.83;;
60935;SDS011;46804;51.786;19.520;2022-07-15T21:05:07;4.10;;;1.83;;
60935;SDS011;46804;51.786;19.520;2022-07-15T21:09:09;4.22;;;1.60;;
60935;SDS011;46804;51.786;19.520;2022-07-15T21:13:09;4.82;;;2.05;;
60935;SDS011;46804;51.786;19.520;2022-07-15T21:17:10;6.75;;;2.50;;
60935;SDS011;46804;51.786;19.520;2022-07-15T21:21:11;5.88;;;1.90;;
60935;SDS011;46804;51.786;19.520;2022-07-15T21:25:11;6.90;;;2.15;;
60935;SDS011;46804;51.786;19.520;2022-07-15T21:29:30;7.32;;;2.55;;
60935;SDS011;46804;51.786;19.520;2022-07-15T21:33:31;6.47;;;2.47;;
60935;SDS011;46804;51.786;19.520;2022-07-15T21:37:31;5.97;;;2.47;;
60935;SDS011;46804;51.786;19.520;2022-07-15T21:41:32;5.25;;;2.20;;
60935;SDS011;46804;51.786;19.520;2022-07-15T21:45:33;8.32;;;2.40;;
60935;SDS011;46804;51.786;19.520;2022-07-15T21:49:35;6.75;;;2.28;;
60935;SDS011;46804;51.786;19.520;2022-07-15T21:53:35;6.32;;;2.20;;
60935;SDS011;46804;51.786;19.520;2022-07-15T21:57:36;4.60;;;2.33;;
60935;SDS011;46804;51.786;19.520;2022-07-15T22:01:36;4.60;;;2.30;;
60935;SDS011;46804;51.786;19.520;2022-07-15T22:05:37;5.45;;;2.55;;
60935;SDS011;46804;51.786;19.520;2022-07-15T22:09:39;6.35;;;2.40;;
60935;SDS011;46804;51.786;19.520;2022-07-15T22:13:40;13.88;;;2.55;;
60935;SDS011;46804;51.786;19.520;2022-07-15T22:17:41;5.05;;;2.88;;
60935;SDS011;46804;51.786;19.520;2022-07-15T22:21:42;6.57;;;2.55;;
60935;SDS011;46804;51.786;19.520;2022-07-15T22:25:42;7.75;;;2.55;;
60935;SDS011;46804;51.786;19.520;2022-07-15T22:29:43;6.63;;;2.35;;
60935;SDS011;46804;51.786;19.520;2022-07-15T22:33:43;8.02;;;2.15;;
60935;SDS011;46804;51.786;19.520;2022-07-15T22:37:44;7.13;;;2.20;;
60935;SDS011;46804;51.786;19.520;2022-07-15T22:41:44;3.22;;;1.83;;
60935;SDS011;46804;51.786;19.520;2022-07-15T22:45:45;7.68;;;2.25;;
60935;SDS011;46804;51.786;19.520;2022-07-15T22:49:45;3.90;;;2.10;;
60935;SDS011;46804;51.786;19.520;2022-07-15T22:53:46;8.32;;;2.28;;
60935;SDS011;46804;51.786;19.520;2022-07-15T22:57:46;7.97;;;2.50;;
60935;SDS011;46804;51.786;19.520;2022-07-15T23:01:47;6.60;;;2.10;;
60935;SDS011;46804;51.786;19.520;2022-07-15T23:05:48;5.13;;;1.90;;
60935;SDS011;46804;51.786;19.520;2022-07-15T23:09:48;5.20;;;1.95;;
60935;SDS011;46804;51.786;19.520;2022-07-15T23:13:49;3.83;;;2.08;;
60935;SDS011;46804;51.786;19.520;2022-07-15T23:17:49;5.40;;;2.08;;
60935;SDS011;46804;51.786;19.520;2022-07-15T23:21:50;4.35;;;2.30;;
60935;SDS011;46804;51.786;19.520;2022-07-15T23:25:50;7.53;;;3.13;;
60935;SDS011;46804;51.786;19.520;2022-07-15T23:29:51;6.15;;;2.00;;
60935;SDS011;46804;51.786;19.520;2022-07-15T23:33:51;5.75;;;2.25;;
60935;SDS011;46804;51.786;19.520;2022-07-15T23:37:52;8.50;;;2.47;;
60935;SDS011;46804;51.786;19.520;2022-07-15T23:41:52;7.70;;;2.58;;
60935;SDS011;46804;51.786;19.520;2022-07-15T23:45:53;9.93;;;2.30;;
60935;SDS011;46804;51.786;19.520;2022-07-15T23:49:54;3.85;;;1.95;;
60935;SDS011;46804;51.786;19.520;2022-07-15T23:53:54;4.20;;;2.10;;
60935;SDS011;46804;51.786;19.520;2022-07-15T23:57:55;5.05;;;2.30;;
